Time;durP1;ratioP1;P1;durP2;ratioP2;P2;SDS_P1;SDS_P2;PMS_P1;PMS_P2;Temp;Humidity;BMP_temperature;BMP_pressure;BME280_temperature;BME280_humidity;BME280_pressure;Samples;Min_cycle;Max_cycle;Signal;HPM_P1;HPM_P2
2021/08/15 00:01:20;;;;;;;;;13.00;11.75;;;;;25.54;95.51;101448.88;5119565;27;46290;-65
2021/08/15 00:03:46;;;;;;;;;11.75;10.25;;;;;25.45;96.42;101438.78;5119782;27;45345;-65
2021/08/15 00:06:12;;;;;;;;;13.00;11.50;;;;;25.48;97.14;101449.28;5119744;27;45169;-65
2021/08/15 00:08:37;;;;;;;;;12.25;12.00;;;;;25.42;98.79;101443.47;5119994;27;45273;-65
2021/08/15 00:11:04;;;;;;;;;15.50;14.50;;;;;25.37;99.56;101437.56;5118803;27;47252;-65
2021/08/15 00:13:29;;;;;;;;;20.50;18.25;;;;;25.33;100.00;101434.22;5119298;27;45271;-65
2021/08/15 00:19:16;;;;;;;;;25.75;17.00;;;;;25.26;100.00;101427.56;5119404;27;45270;-66
2021/08/15 00:21:42;;;;;;;;;18.25;17.00;;;;;25.26;100.00;101441.78;5119386;27;46588;-65
2021/08/15 00:24:08;;;;;;;;;16.75;15.00;;;;;25.22;100.00;101428.72;5119011;27;45423;-66
2021/08/15 00:26:33;;;;;;;;;17.00;14.75;;;;;25.20;100.00;101428.81;5119428;27;45698;-65
2021/08/15 00:28:59;;;;;;;;;16.25;15.50;;;;;25.17;100.00;101430.84;5119658;27;45368;-66
2021/08/15 00:31:27;;;;;;;;;20.00;16.50;;;;;25.11;100.00;101429.41;5119199;27;45322;-66
2021/08/15 00:33:56;;;;;;;;;16.75;15.25;;;;;25.05;100.00;101427.13;5119002;27;45657;-66
2021/08/15 00:36:22;;;;;;;;;21.50;19.50;;;;;25.02;100.00;101424.66;5119454;27;45277;-66
2021/08/15 00:38:47;;;;;;;;;20.75;18.00;;;;;24.97;100.00;101429.41;5119097;27;45328;-65
2021/08/15 00:41:12;;;;;;;;;17.25;16.75;;;;;24.93;100.00;101430.56;5118689;27;45356;-65
2021/08/15 00:43:38;;;;;;;;;18.50;17.50;;;;;24.79;100.00;101412.72;5119193;27;45214;-65
2021/08/15 00:49:25;;;;;;;;;17.25;15.00;;;;;24.60;100.00;101407.66;5118628;27;45374;-65
2021/08/15 00:51:51;;;;;;;;;18.00;17.00;;;;;24.68;100.00;101426.75;5119026;27;45418;-65
2021/08/15 00:54:18;;;;;;;;;23.75;21.75;;;;;24.62;100.00;101424.44;5118745;27;45314;-66
2021/08/15 00:56:53;;;;;;;;;18.75;15.75;;;;;24.60;100.00;101415.69;5118903;27;45353;-65
2021/08/15 00:59:19;;;;;;;;;18.75;17.50;;;;;24.55;100.00;101415.13;5118921;27;45205;-65
2021/08/15 01:01:44;;;;;;;;;17.75;16.75;;;;;24.52;100.00;101415.31;5118835;27;45272;-66
2021/08/15 01:04:10;;;;;;;;;18.25;17.75;;;;;24.53;100.00;101421.50;5118793;27;45263;-66
2021/08/15 01:06:38;;;;;;;;;19.00;17.25;;;;;24.42;100.00;101412.31;5119030;27;45291;-66
2021/08/15 01:09:06;;;;;;;;;17.00;16.50;;;;;24.47;100.00;101424.56;5100260;27;45328;-66
2021/08/15 01:11:33;;;;;;;;;16.00;15.25;;;;;24.40;100.00;101419.56;5118332;27;46521;-66
2021/08/15 01:14:05;;;;;;;;;18.00;16.75;;;;;24.40;100.00;101426.72;5118341;27;45466;-66
2021/08/15 01:16:32;;;;;;;;;20.00;18.00;;;;;24.35;100.00;101411.00;5118681;27;45350;-67
2021/08/15 01:18:57;;;;;;;;;14.75;14.50;;;;;24.25;100.00;101400.97;5118466;27;45315;-66
2021/08/15 01:21:22;;;;;;;;;17.25;15.50;;;;;24.28;100.00;101408.78;5118185;27;46977;-66
2021/08/15 01:23:50;;;;;;;;;14.75;14.00;;;;;24.19;100.00;101401.31;5121856;27;45257;-66
2021/08/15 01:26:18;;;;;;;;;10.00;10.00;;;;;24.16;100.00;101401.50;5122210;27;45365;-66
2021/08/15 01:28:44;;;;;;;;;17.50;17.25;;;;;24.00;100.00;101390.91;5122198;27;45593;-65
2021/08/15 01:34:31;;;;;;;;;16.25;15.25;;;;;23.90;100.00;101405.72;5121760;27;45426;-66
2021/08/15 01:36:56;;;;;;;;;13.50;13.25;;;;;23.80;100.00;101402.75;5121978;27;45458;-66
2021/08/15 01:39:21;;;;;;;;;18.00;16.25;;;;;23.80;100.00;101413.44;5122012;27;45493;-66
2021/08/15 01:41:47;;;;;;;;;15.25;15.25;;;;;23.74;100.00;101397.75;5121575;27;46297;-67
2021/08/15 01:44:13;;;;;;;;;17.00;15.00;;;;;23.79;100.00;101414.38;5121892;27;45423;-67
2021/08/15 01:46:38;;;;;;;;;16.00;15.00;;;;;23.71;100.00;101392.63;5122051;27;45370;-66
2021/08/15 01:49:04;;;;;;;;;17.50;15.50;;;;;23.78;100.00;101391.31;5121628;27;45291;-65
2021/08/15 01:51:31;;;;;;;;;18.00;16.75;;;;;23.77;100.00;101400.28;5121544;27;47010;-65
2021/08/15 01:54:00;;;;;;;;;18.00;15.75;;;;;23.73;100.00;101393.38;5121600;27;45566;-65
2021/08/15 01:56:26;;;;;;;;;17.50;16.00;;;;;23.75;100.00;101399.47;5121559;27;45259;-66
2021/08/15 01:58:51;;;;;;;;;18.25;16.25;;;;;23.55;100.00;101371.31;5121706;27;45357;-65
2021/08/15 02:04:38;;;;;;;;;17.00;14.00;;;;;23.60;100.00;101390.59;5121386;27;45234;-66
2021/08/15 02:07:05;;;;;;;;;16.75;15.25;;;;;23.63;100.00;101386.88;5121572;27;45138;-66
2021/08/15 02:09:31;;;;;;;;;18.50;16.00;;;;;23.62;100.00;101382.50;5121366;27;45205;-66
2021/08/15 02:11:56;;;;;;;;;15.75;14.25;;;;;23.54;100.00;101372.25;5121516;27;46212;-65
2021/08/15 02:14:21;;;;;;;;;16.00;14.75;;;;;23.59;100.00;101380.03;5121114;27;45324;-66
2021/08/15 02:16:47;;;;;;;;;15.00;14.00;;;;;23.56;100.00;101380.16;5121430;27;45299;-66
2021/08/15 02:19:12;;;;;;;;;18.75;16.75;;;;;23.53;100.00;101368.72;5121635;27;45414;-65
2021/08/15 02:21:38;;;;;;;;;16.75;14.75;;;;;23.47;100.00;101363.75;5121126;27;45336;-66
2021/08/15 02:24:04;;;;;;;;;15.75;15.25;;;;;23.42;100.00;101363.16;5121286;27;45259;-66
2021/08/15 02:26:30;;;;;;;;;13.00;12.00;;;;;23.34;100.00;101351.22;5121438;27;45360;-64
2021/08/15 02:28:55;;;;;;;;;14.75;12.00;;;;;23.31;100.00;101354.94;5121553;27;45509;-65
2021/08/15 02:34:42;;;;;;;;;15.25;12.50;;;;;23.27;100.00;101356.03;5120678;27;45270;-66
2021/08/15 02:37:08;;;;;;;;;18.00;15.00;;;;;23.16;100.00;101345.16;5120993;27;45436;-66
2021/08/15 02:39:33;;;;;;;;;13.25;13.25;;;;;23.25;100.00;101360.59;5121093;27;45467;-66
2021/08/15 02:42:01;;;;;;;;;13.75;12.50;;;;;23.23;100.00;101357.16;5120975;27;45416;-66
2021/08/15 02:44:27;;;;;;;;;12.00;11.00;;;;;23.25;100.00;101355.25;5120674;27;45588;-66
2021/08/15 02:46:52;;;;;;;;;13.75;12.25;;;;;23.24;100.00;101350.88;5120940;27;45774;-66
2021/08/15 02:49:17;;;;;;;;;12.50;11.00;;;;;23.16;100.00;101340.69;5120866;27;45326;-66
2021/08/15 02:51:43;;;;;;;;;16.75;15.50;;;;;23.22;100.00;101348.31;5120689;27;47175;-66
2021/08/15 02:54:08;;;;;;;;;11.50;10.75;;;;;23.16;100.00;101343.34;5120976;27;45246;-66
2021/08/15 02:56:33;;;;;;;;;15.25;14.00;;;;;23.15;100.00;101340.78;5121056;27;45219;-66
2021/08/15 02:58:59;;;;;;;;;17.00;13.00;;;;;23.02;100.00;101321.09;5120867;27;45394;-68
2021/08/15 03:04:46;;;;;;;;;14.75;12.75;;;;;23.04;100.00;101335.19;5120473;27;45337;-66
2021/08/15 03:07:16;;;;;;;;;14.00;12.00;;;;;23.05;100.00;101335.09;5120838;27;45284;-66
2021/08/15 03:09:44;;;;;;;;;11.75;10.75;;;;;23.02;100.00;101337.94;5120865;27;45307;-66
2021/08/15 03:12:10;;;;;;;;;12.25;10.75;;;;;22.98;100.00;101336.38;5120423;27;45655;-66
2021/08/15 03:14:37;;;;;;;;;13.75;13.00;;;;;22.90;100.00;101317.34;5120488;27;45327;-68
2021/08/15 03:17:03;;;;;;;;;13.75;11.25;;;;;22.89;100.00;101310.28;5120595;27;45255;-65
2021/08/15 03:19:28;;;;;;;;;13.25;12.25;;;;;22.98;100.00;101330.22;5120690;27;45485;-66
2021/08/15 03:21:54;;;;;;;;;14.50;10.75;;;;;22.95;100.00;101323.25;5120100;27;45344;-66
2021/08/15 03:24:19;;;;;;;;;14.00;12.75;;;;;22.93;100.00;101327.81;5120455;27;45266;-66
2021/08/15 03:26:45;;;;;;;;;11.00;10.50;;;;;22.82;100.00;101314.22;5120075;27;45343;-66
2021/08/15 03:29:11;;;;;;;;;13.50;12.25;;;;;22.88;100.00;101321.88;5120365;27;45302;-66
2021/08/15 03:31:37;;;;;;;;;13.75;12.75;;;;;22.87;100.00;101326.34;5120025;27;46425;-66
2021/08/15 03:34:02;;;;;;;;;9.00;9.00;;;;;22.80;100.00;101314.28;5120205;27;45369;-67
2021/08/15 03:36:28;;;;;;;;;15.25;11.75;;;;;22.76;100.00;101320.72;5120430;27;45373;-66
2021/08/15 03:38:53;;;;;;;;;12.75;10.25;;;;;22.82;100.00;101324.88;5101711;27;45344;-66
2021/08/15 03:41:20;;;;;;;;;11.00;10.00;;;;;22.80;100.00;101324.06;5119689;27;47571;-66
2021/08/15 03:43:49;;;;;;;;;16.50;12.75;;;;;22.71;100.00;101313.94;5119762;27;45436;-66
2021/08/15 03:49:36;;;;;;;;;13.00;13.00;;;;;22.71;100.00;101321.94;5119581;27;45341;-66
2021/08/15 03:52:01;;;;;;;;;13.50;13.00;;;;;22.68;100.00;101320.31;5119542;27;46373;-66
2021/08/15 03:54:27;;;;;;;;;12.25;11.50;;;;;22.62;100.00;101320.63;5119972;27;45247;-66
2021/08/15 03:56:53;;;;;;;;;13.75;11.75;;;;;22.57;100.00;101320.88;5119803;27;45289;-67
2021/08/15 03:59:19;;;;;;;;;13.50;12.75;;;;;22.56;100.00;101327.16;5120025;27;45268;-67
2021/08/15 04:01:45;;;;;;;;;13.75;11.75;;;;;22.46;100.00;101317.97;5100806;27;45774;-66
2021/08/15 04:04:11;;;;;;;;;12.25;11.50;;;;;22.41;100.00;101313.84;5119980;27;45416;-66
2021/08/15 04:06:36;;;;;;;;;11.00;11.00;;;;;22.36;100.00;101318.53;5119508;27;45216;-66
2021/08/15 04:09:05;;;;;;;;;11.75;10.50;;;;;22.34;100.00;101320.41;5119744;27;45603;-66
2021/08/15 04:11:31;;;;;;;;;15.25;12.00;;;;;22.28;100.00;101314.50;5119492;27;45423;-66
2021/08/15 04:13:56;;;;;;;;;10.50;7.00;;;;;22.29;100.00;101313.53;5119218;27;45346;-66
2021/08/15 04:19:44;;;;;;;;;11.50;10.50;;;;;22.24;100.00;101306.75;5119558;27;45423;-67
2021/08/15 04:22:10;;;;;;;;;11.75;11.00;;;;;22.18;100.00;101294.66;5118936;27;46800;-66
2021/08/15 04:24:36;;;;;;;;;13.00;10.25;;;;;22.22;100.00;101301.53;5119206;27;45326;-66
2021/08/15 04:27:01;;;;;;;;;11.50;9.25;;;;;22.18;100.00;101296.44;5119272;27;45288;-66
2021/08/15 04:29:27;;;;;;;;;9.25;9.00;;;;;22.21;100.00;101301.63;5119295;27;45295;-66
2021/08/15 04:31:52;;;;;;;;;9.00;9.00;;;;;22.19;100.00;101301.69;5118875;27;47542;-66
2021/08/15 04:34:17;;;;;;;;;11.75;9.50;;;;;22.16;100.00;101301.84;5100665;27;45241;-67
2021/08/15 04:36:43;;;;;;;;;11.75;10.50;;;;;22.14;100.00;101300.19;5119411;27;45844;-66
2021/08/15 04:39:08;;;;;;;;;10.75;9.75;;;;;22.16;100.00;101298.31;5119063;27;45393;-66
2021/08/15 04:41:33;;;;;;;;;12.00;11.50;;;;;22.13;100.00;101294.03;5119183;27;46231;-66
2021/08/15 04:43:59;;;;;;;;;10.50;9.75;;;;;22.14;100.00;101297.53;5119164;27;45270;-67
2021/08/15 04:49:46;;;;;;;;;12.00;10.00;;;;;22.08;100.00;101292.56;5118742;27;45450;-67
2021/08/15 04:52:11;;;;;;;;;11.50;10.00;;;;;22.08;100.00;101301.41;5118593;27;46909;-66
2021/08/15 04:54:37;;;;;;;;;12.75;11.00;;;;;22.04;100.00;101289.22;5118683;27;45302;-66
2021/08/15 04:57:02;;;;;;;;;10.75;10.25;;;;;22.06;100.00;101294.44;5118808;27;45177;-66
2021/08/15 04:59:28;;;;;;;;;12.25;10.25;;;;;22.06;100.00;101289.13;5118908;27;45411;-66
2021/08/15 05:01:54;;;;;;;;;11.00;10.25;;;;;22.06;100.00;101276.69;5118487;27;46566;-66
2021/08/15 05:04:20;;;;;;;;;12.25;10.00;;;;;22.07;100.00;101293.50;5118567;27;45258;-67
2021/08/15 05:06:45;;;;;;;;;10.50;9.75;;;;;22.06;100.00;101283.81;5118759;27;45333;-67
2021/08/15 05:09:11;;;;;;;;;14.75;10.25;;;;;21.98;100.00;101278.88;5118898;27;45477;-66
2021/08/15 05:11:38;;;;;;;;;11.50;10.00;;;;;22.04;100.00;101285.66;5118328;27;47418;-66
2021/08/15 05:14:05;;;;;;;;;10.00;8.50;;;;;22.05;100.00;101290.94;5099915;27;45344;-66
2021/08/15 05:19:51;;;;;;;;;9.75;9.50;;;;;21.98;100.00;101289.50;5118719;27;45314;-66
2021/08/15 05:22:17;;;;;;;;;14.50;10.25;;;;;21.79;100.00;101254.19;5118596;27;46632;-66
2021/08/15 05:24:42;;;;;;;;;9.50;8.00;;;;;22.00;100.00;101284.97;5118227;27;45394;-66
2021/08/15 05:27:07;;;;;;;;;13.00;9.00;;;;;21.91;100.00;101274.78;5118357;27;45362;-66
2021/08/15 05:29:33;;;;;;;;;10.25;9.00;;;;;21.97;100.00;101283.34;5100079;27;45373;-66
2021/08/15 05:31:58;;;;;;;;;11.75;10.75;;;;;21.99;100.00;101293.88;5118336;27;45660;-66
2021/08/15 05:34:23;;;;;;;;;12.50;11.00;;;;;21.99;100.00;101293.88;5118451;27;45236;-65
2021/08/15 05:36:49;;;;;;;;;13.75;12.00;;;;;22.03;100.00;101290.13;5118545;27;45281;-65
2021/08/15 05:39:14;;;;;;;;;10.00;9.25;;;;;21.99;100.00;101289.44;5118696;27;45371;-66
2021/08/15 05:41:39;;;;;;;;;10.25;10.00;;;;;21.99;100.00;101288.56;5118374;27;46095;-66
2021/08/15 05:44:05;;;;;;;;;9.00;9.00;;;;;21.98;100.00;101285.03;5118391;27;45339;-65
2021/08/15 05:49:52;;;;;;;;;10.50;10.50;;;;;22.07;100.00;101283.72;5117964;27;45333;-66
2021/08/15 05:52:18;;;;;;;;;13.00;11.50;;;;;22.07;100.00;101267.75;5118173;27;45369;-65
2021/08/15 05:54:43;;;;;;;;;10.25;9.75;;;;;22.15;100.00;101280.63;5117862;27;45337;-66
2021/08/15 05:57:09;;;;;;;;;11.75;9.00;;;;;22.20;100.00;101283.94;5118338;27;45344;-67
2021/08/15 05:59:34;;;;;;;;;12.00;10.00;;;;;22.19;100.00;101276.91;5117983;27;45291;-66
2021/08/15 06:02:00;;;;;;;;;11.00;9.75;;;;;22.23;100.00;101283.75;5118046;27;46208;-65
2021/08/15 06:04:26;;;;;;;;;10.50;9.75;;;;;22.19;100.00;101274.25;5118151;27;45363;-65
2021/08/15 06:06:51;;;;;;;;;15.50;12.75;;;;;22.30;100.00;101293.97;5117977;27;45496;-65
2021/08/15 06:09:17;;;;;;;;;13.00;12.50;;;;;22.34;100.00;101296.47;5121056;27;45366;-66
2021/08/15 06:11:42;;;;;;;;;14.50;13.75;;;;;22.35;100.00;101291.06;5121552;27;46071;-65
2021/08/15 06:14:08;;;;;;;;;13.50;12.25;;;;;22.31;100.00;101274.41;5121291;27;45275;-66
2021/08/15 06:19:55;;;;;;;;;13.25;11.50;;;;;22.42;100.00;101294.28;5121282;27;45409;-66
2021/08/15 06:22:20;;;;;;;;;11.50;10.75;;;;;22.44;100.00;101295.91;5120980;27;45511;-66
2021/08/15 06:24:46;;;;;;;;;11.00;10.25;;;;;22.45;100.00;101294.97;5120968;27;45366;-67
2021/08/15 06:27:11;;;;;;;;;13.25;11.50;;;;;22.51;100.00;101304.41;5121079;27;45500;-65
2021/08/15 06:29:37;;;;;;;;;15.00;11.00;;;;;22.50;100.00;101300.03;5121428;27;45305;-66
2021/08/15 06:32:02;;;;;;;;;14.00;12.00;;;;;22.52;100.00;101300.78;5120803;27;46617;-66
2021/08/15 06:34:27;;;;;;;;;10.75;9.75;;;;;22.47;100.00;101297.53;5102656;27;45304;-67
2021/08/15 06:36:53;;;;;;;;;13.75;11.75;;;;;22.40;100.00;101283.69;5121186;27;45241;-67
2021/08/15 06:39:18;;;;;;;;;10.75;9.50;;;;;22.43;100.00;101282.69;5121317;27;45326;-67
2021/08/15 06:41:44;;;;;;;;;9.75;8.50;;;;;22.52;100.00;101298.13;5121021;27;45440;-67
2021/08/15 06:44:09;;;;;;;;;14.50;11.00;;;;;22.48;100.00;101277.97;5120709;27;45219;-67
2021/08/15 06:50:11;;;;;;;;;11.00;10.50;;;;;22.68;100.00;101280.38;5120641;27;45279;-67
2021/08/15 06:52:36;;;;;;;;;11.50;9.75;;;;;22.74;100.00;101271.19;5120391;27;46313;-67
2021/08/15 06:55:02;;;;;;;;;12.00;11.75;;;;;22.89;100.00;101284.53;5120520;27;45430;-68
2021/08/15 06:57:28;;;;;;;;;11.50;10.25;;;;;22.98;100.00;101284.94;5120826;27;45354;-67
2021/08/15 06:59:53;;;;;;;;;10.25;9.00;;;;;23.07;100.00;101290.56;5120679;27;45458;-67
2021/08/15 07:02:19;;;;;;;;;15.25;11.75;;;;;23.14;100.00;101291.97;5120267;27;46295;-67
2021/08/15 07:04:45;;;;;;;;;12.25;11.25;;;;;23.18;100.00;101284.63;5120318;27;45337;-67
2021/08/15 07:07:11;;;;;;;;;12.00;10.25;;;;;23.27;100.00;101292.09;5120678;27;45331;-65
2021/08/15 07:09:36;;;;;;;;;14.50;11.25;;;;;23.30;100.00;101293.72;5102111;27;45437;-68
2021/08/15 07:12:02;;;;;;;;;12.25;11.00;;;;;23.20;100.00;101283.59;5120063;27;46148;-66
2021/08/15 07:14:29;;;;;;;;;12.00;10.00;;;;;23.30;100.00;101305.22;5120189;27;45268;-67
2021/08/15 07:20:15;;;;;;;;;12.50;10.75;;;;;23.36;100.00;101312.03;5119035;27;45403;-67
2021/08/15 07:22:41;;;;;;;;;13.50;11.25;;;;;23.40;100.00;101303.75;5119974;27;46322;-67
2021/08/15 07:25:07;;;;;;;;;11.50;11.00;;;;;23.47;100.00;101302.44;5119983;27;45304;-67
2021/08/15 07:27:34;;;;;;;;;13.75;10.50;;;;;23.52;100.00;101289.69;5101768;27;45295;-66
2021/08/15 07:30:00;;;;;;;;;10.75;10.50;;;;;23.63;100.00;101296.22;5120279;27;45450;-67
2021/08/15 07:32:25;;;;;;;;;9.75;9.75;;;;;23.72;100.00;101290.34;5119737;27;46644;-66
2021/08/15 07:34:51;;;;;;;;;13.00;10.50;;;;;23.75;100.00;101284.81;5119923;27;45267;-67
2021/08/15 07:37:16;;;;;;;;;11.50;9.00;;;;;23.90;100.00;101294.56;5120026;27;45612;-67
2021/08/15 07:39:42;;;;;;;;;13.00;12.00;;;;;23.87;100.00;101267.22;5120102;27;45345;-68
2021/08/15 07:42:07;;;;;;;;;11.00;10.75;;;;;24.00;100.00;101285.06;5119790;27;46314;-68
2021/08/15 07:44:33;;;;;;;;;11.50;9.00;;;;;24.03;100.00;101274.19;5119682;27;45310;-68
2021/08/15 07:50:20;;;;;;;;;12.50;11.00;;;;;24.21;100.00;101273.97;5119253;27;45757;-66
2021/08/15 07:52:46;;;;;;;;;12.50;10.50;;;;;24.35;100.00;101282.03;5119528;27;47288;-66
2021/08/15 07:55:11;;;;;;;;;12.00;10.00;;;;;24.46;100.00;101276.88;5119568;27;45286;-67
2021/08/15 07:57:37;;;;;;;;;9.75;9.00;;;;;24.58;100.00;101284.06;5119658;27;45346;-66
2021/08/15 08:00:04;;;;;;;;;11.25;8.25;;;;;24.64;100.00;101275.66;5119710;27;45509;-66
2021/08/15 08:02:30;;;;;;;;;15.00;10.75;;;;;24.78;100.00;101265.91;5119528;27;45530;-66
2021/08/15 08:04:55;;;;;;;;;10.75;9.75;;;;;24.91;100.00;101275.72;5119749;27;45337;-66
2021/08/15 08:07:22;;;;;;;;;12.00;11.00;;;;;25.08;100.00;101274.59;5100967;27;45441;-67
2021/08/15 08:09:49;;;;;;;;;11.00;9.75;;;;;25.21;100.00;101274.66;5119774;27;45243;-67
2021/08/15 08:12:16;;;;;;;;;10.75;9.00;;;;;25.36;100.00;101275.47;5119217;27;46284;-68
2021/08/15 08:14:42;;;;;;;;;11.25;10.00;;;;;25.51;100.00;101271.72;5119353;27;45234;-68
2021/08/15 08:20:32;;;;;;;;;9.75;9.25;;;;;25.95;100.00;101268.69;5119448;27;45229;-68
2021/08/15 08:22:58;;;;;;;;;11.25;9.25;;;;;26.06;100.00;101255.41;5119411;27;45720;-67
2021/08/15 08:25:24;;;;;;;;;14.25;9.50;;;;;26.26;100.00;101264.69;5119028;27;45303;-68
2021/08/15 08:27:49;;;;;;;;;9.25;8.75;;;;;26.43;100.00;101259.00;5119247;27;45365;-68
2021/08/15 08:30:15;;;;;;;;;9.25;8.25;;;;;26.66;100.00;101260.00;5119412;27;45274;-67
2021/08/15 08:32:40;;;;;;;;;9.00;7.75;;;;;26.90;100.00;101267.19;5118579;27;46134;-67
2021/08/15 08:35:06;;;;;;;;;8.25;7.25;;;;;27.07;100.00;101270.34;5119218;27;45451;-68
2021/08/15 08:37:31;;;;;;;;;8.00;7.75;;;;;27.23;100.00;101258.50;5119041;27;45473;-66
2021/08/15 08:40:00;;;;;;;;;9.75;9.50;;;;;27.45;100.00;101261.25;5119490;27;45228;-67
2021/08/15 08:42:27;;;;;;;;;12.00;8.00;;;;;27.64;100.00;101266.94;5118724;27;45402;-66
2021/08/15 08:44:56;;;;;;;;;7.25;7.25;;;;;27.74;100.00;101259.00;5118846;27;45298;-67
2021/08/15 08:47:22;;;;;;;;;7.00;7.00;;;;;27.87;100.00;101250.88;5119094;27;45427;-67
2021/08/15 08:49:51;;;;;;;;;9.75;7.75;;;;;28.08;100.00;101251.00;5119163;27;45268;-67
2021/08/15 08:52:16;;;;;;;;;9.50;8.75;;;;;28.29;100.00;101247.47;5118605;27;46565;-67
2021/08/15 08:54:42;;;;;;;;;10.00;10.00;;;;;28.47;100.00;101255.84;5118550;27;45206;-67
2021/08/15 08:57:07;;;;;;;;;10.00;8.75;;;;;28.57;100.00;101251.47;5118771;27;45316;-67
2021/08/15 08:59:37;;;;;;;;;10.00;9.00;;;;;28.69;100.00;101241.53;5118985;27;45384;-68
2021/08/15 09:02:05;;;;;;;;;10.50;8.25;;;;;28.79;100.00;101230.88;5118395;27;46450;-67
2021/08/15 09:04:31;;;;;;;;;10.00;7.75;;;;;29.02;100.00;101239.75;5118509;27;45478;-67
2021/08/15 09:07:08;;;;;;;;;7.75;7.75;;;;;29.20;100.00;101241.75;5118919;27;45142;-67
2021/08/15 09:09:36;;;;;;;;;9.50;8.75;;;;;29.40;100.00;101234.63;5118741;27;45504;-67
2021/08/15 09:12:03;;;;;;;;;11.75;10.75;;;;;29.57;100.00;101223.31;5118398;27;46297;-67
2021/08/15 09:14:31;;;;;;;;;9.75;9.00;;;;;29.74;100.00;101224.53;5118599;27;45445;-67
2021/08/15 09:17:00;;;;;;;;;7.50;6.50;;;;;29.98;100.00;101224.22;5118809;27;45296;-68
2021/08/15 09:19:38;;;;;;;;;10.25;9.25;;;;;30.26;100.00;101227.19;5118693;27;45349;-67
2021/08/15 09:22:19;;;;;;;;;10.50;9.00;;;;;30.55;100.00;101228.09;5118467;27;45309;-67
2021/08/15 09:24:49;;;;;;;;;10.75;9.75;;;;;30.86;100.00;101220.81;5118687;27;45565;-68
2021/08/15 09:27:21;;;;;;;;;11.25;10.00;;;;;31.14;100.00;101208.28;5118566;27;45339;-68
2021/08/15 09:33:15;;;;;;;;;11.25;10.25;;;;;32.03;99.87;101213.38;5118025;27;45692;-67
2021/08/15 09:35:41;;;;;;;;;15.25;12.25;;;;;32.43;98.47;101210.34;5117971;27;45480;-67
2021/08/15 09:38:06;;;;;;;;;10.75;10.25;;;;;32.85;97.56;101206.06;5118185;27;45398;-67
2021/08/15 09:40:41;;;;;;;;;13.25;9.75;;;;;33.38;95.47;101198.91;5118247;27;45481;-67
2021/08/15 09:43:09;;;;;;;;;14.25;11.25;;;;;33.58;91.44;101207.66;5119357;27;45432;-68
2021/08/15 09:49:13;;;;;;;;;10.50;10.00;;;;;33.90;88.39;101193.47;5121630;27;45307;-68
2021/08/15 09:51:41;;;;;;;;;12.00;12.00;;;;;34.42;89.29;101207.75;5122019;27;45274;-67
2021/08/15 09:54:07;;;;;;;;;9.25;9.25;;;;;35.14;86.39;101205.31;5121818;27;45551;-67
2021/08/15 09:56:36;;;;;;;;;14.50;11.50;;;;;36.04;82.63;101195.97;5121389;27;45296;-68
2021/08/15 09:59:20;;;;;;;;;9.00;9.00;;;;;37.02;77.14;101198.13;5121320;27;45381;-68
2021/08/15 10:05:09;;;;;;;;;11.50;10.50;;;;;38.19;73.98;101182.91;5121190;27;45540;-68
2021/08/15 10:07:35;;;;;;;;;13.25;12.25;;;;;38.15;72.67;101190.59;5103166;27;45482;-68
2021/08/15 10:10:00;;;;;;;;;13.00;13.00;;;;;37.78;72.50;101202.50;5121372;27;45314;-67
2021/08/15 10:12:26;;;;;;;;;11.75;10.50;;;;;37.20;72.73;101189.63;5121592;27;45360;-67
2021/08/15 10:14:51;;;;;;;;;11.75;10.00;;;;;36.85;73.58;101182.94;5121235;27;45696;-67
2021/08/15 10:20:39;;;;;;;;;11.50;10.50;;;;;36.83;77.03;101171.38;5121135;27;45362;-67
2021/08/15 10:23:10;;;;;;;;;11.75;10.50;;;;;37.33;74.76;101181.66;5121370;27;45449;-68
2021/08/15 10:25:40;;;;;;;;;9.75;8.25;;;;;37.19;72.44;101177.03;5120933;27;46576;-67
2021/08/15 10:28:07;;;;;;;;;10.25;9.50;;;;;36.94;71.15;101176.41;5121026;27;45349;-67
2021/08/15 10:30:32;;;;;;;;;10.00;10.00;;;;;37.15;70.58;101173.84;5121181;27;45272;-68
2021/08/15 10:32:57;;;;;;;;;10.75;10.75;;;;;37.81;69.66;101166.69;5121456;27;45500;-68
2021/08/15 10:35:25;;;;;;;;;11.00;11.00;;;;;38.69;68.44;101167.50;5121182;27;45413;-68
2021/08/15 10:37:55;;;;;;;;;11.00;11.00;;;;;39.59;66.14;101153.97;5121111;27;45420;-67
2021/08/15 10:40:39;;;;;;;;;13.00;12.00;;;;;39.90;63.79;101150.75;5121069;27;45414;-67
2021/08/15 10:43:06;;;;;;;;;14.00;11.00;;;;;39.73;63.33;101139.31;5121277;27;45444;-66
2021/08/15 10:45:31;;;;;;;;;10.75;9.75;;;;;39.62;62.99;101137.19;5120658;27;47674;-67
2021/08/15 10:48:08;;;;;;;;;10.50;10.25;;;;;39.89;62.10;101137.28;5120973;27;45325;-67
2021/08/15 10:50:46;;;;;;;;;12.75;12.00;;;;;41.00;60.60;101144.94;5102155;27;45339;-67
2021/08/15 10:53:29;;;;;;;;;11.25;11.00;;;;;42.09;55.77;101141.47;5121231;27;45401;-68
2021/08/15 10:56:04;;;;;;;;;10.25;9.75;;;;;42.85;53.10;101139.72;5120769;27;45666;-67
2021/08/15 10:58:36;;;;;;;;;10.75;10.00;;;;;43.81;51.76;101128.19;5120310;27;45286;-66
2021/08/15 11:01:03;;;;;;;;;9.50;8.50;;;;;44.68;51.61;101131.38;5120745;27;45447;-67
2021/08/15 11:03:30;;;;;;;;;10.00;9.00;;;;;44.57;46.06;101133.88;5120880;27;45225;-67
2021/08/15 11:05:57;;;;;;;;;8.75;8.75;;;;;43.60;43.14;101119.31;5120646;27;45477;-68
2021/08/15 11:08:34;;;;;;;;;8.00;8.00;;;;;43.74;43.75;101119.19;5120521;27;45423;-65
2021/08/15 11:11:12;;;;;;;;;9.00;9.00;;;;;44.27;40.58;101116.53;5120203;27;45401;-66
2021/08/15 11:13:39;;;;;;;;;8.50;8.00;;;;;44.90;37.93;101124.25;5120542;27;45173;-66
2021/08/15 11:16:26;;;;;;;;;7.75;7.25;;;;;45.24;36.86;101116.19;5120066;27;46134;-67
2021/08/15 11:19:10;;;;;;;;;11.50;10.00;;;;;45.79;37.19;101116.59;5120575;27;45255;-67
2021/08/15 11:22:05;;;;;;;;;9.50;9.00;;;;;45.48;34.61;101121.44;5120268;27;45280;-67
2021/08/15 11:24:46;;;;;;;;;9.50;9.50;;;;;45.11;34.63;101125.56;5120397;27;45636;-67
2021/08/15 11:27:15;;;;;;;;;8.25;8.25;;;;;45.63;35.08;101120.97;5120075;27;46977;-66
2021/08/15 11:29:42;;;;;;;;;8.00;7.75;;;;;45.67;32.89;101122.13;5120049;27;45281;-66
2021/08/15 11:32:12;;;;;;;;;8.25;8.25;;;;;44.83;34.40;101123.50;5120059;27;45450;-67
2021/08/15 11:34:48;;;;;;;;;8.50;8.00;;;;;44.75;34.17;101107.31;5120360;27;45499;-67
2021/08/15 11:37:18;;;;;;;;;7.50;7.00;;;;;44.91;34.48;101114.06;5119800;27;47445;-67
2021/08/15 11:39:44;;;;;;;;;9.75;9.50;;;;;44.99;34.29;101109.00;5119773;27;45383;-67
2021/08/15 11:42:22;;;;;;;;;7.75;7.50;;;;;44.42;33.87;101094.91;5120220;27;45287;-67
2021/08/15 11:45:01;;;;;;;;;4.75;4.75;;;;;43.40;33.66;101114.03;5120568;27;45375;-66
2021/08/15 11:47:40;;;;;;;;;8.75;8.00;;;;;42.94;33.45;101116.41;5119983;27;45958;-67
2021/08/15 11:50:16;;;;;;;;;7.25;7.25;;;;;42.38;32.70;101103.53;5119848;27;45338;-67
2021/08/15 11:52:41;;;;;;;;;7.50;6.75;;;;;42.38;32.78;101093.38;5119855;27;45497;-67
2021/08/15 11:55:18;;;;;;;;;7.00;6.25;;;;;42.18;34.82;101088.03;5120187;27;45338;-67
2021/08/15 11:57:45;;;;;;;;;7.50;7.25;;;;;41.59;35.55;101100.09;5119430;27;46609;-66
2021/08/15 12:00:11;;;;;;;;;5.00;4.75;;;;;40.86;36.43;101093.09;5119532;27;45470;-66
2021/08/15 12:02:37;;;;;;;;;6.25;6.25;;;;;41.34;36.68;101090.06;5119649;27;45437;-67
2021/08/15 12:05:03;;;;;;;;;7.75;6.50;;;;;41.55;35.98;101087.03;5119484;27;45365;-66
2021/08/15 12:07:29;;;;;;;;;7.00;6.50;;;;;41.98;35.81;101092.75;5100224;27;47426;-67
2021/08/15 12:10:29;;;;;;;;;7.00;6.25;;;;;41.66;34.12;101096.53;5119435;27;45411;-67
2021/08/15 12:13:07;;;;;;;;;9.75;7.25;;;;;41.14;35.54;101095.56;5119493;27;45306;-68
2021/08/15 12:18:55;;;;;;;;;6.50;6.00;;;;;39.86;35.82;101085.75;5119040;27;45622;-67